Time;durP1;ratioP1;P1;durP2;ratioP2;P2;SDS_P1;SDS_P2;PMS_P1;PMS_P2;Temp;Humidity;BMP_temperature;BMP_pressure;BME280_temperature;BME280_humidity;BME280_pressure;Samples;Min_cycle;Max_cycle;Signal;HPM_P1;HPM_P2
2023/03/30 00:02:24;;;;;;;58.78;34.00;;;10.10;99.90;;;;;;5064062;28;20439;-66
2023/03/30 00:04:50;;;;;;;56.50;32.20;;;10.10;99.90;;;;;;5061363;28;20442;-68
2023/03/30 00:07:17;;;;;;;56.72;32.55;;;10.10;99.90;;;;;;5063960;28;20041;-67
2023/03/30 00:09:43;;;;;;;57.00;32.05;;;10.10;99.90;;;;;;5064682;28;20561;-67
2023/03/30 00:12:09;;;;;;;51.88;31.85;;;10.10;99.90;;;;;;5081032;28;20084;-67
2023/03/30 00:14:40;;;;;;;53.88;31.25;;;10.10;99.90;;;;;;5063913;28;20036;-66
2023/03/30 00:17:07;;;;;;;47.10;29.33;;;10.10;99.90;;;;;;5047038;28;20131;-67
2023/03/30 00:19:36;;;;;;;51.70;30.85;;;10.20;99.90;;;;;;5047699;28;20040;-67
2023/03/30 00:22:06;;;;;;;50.97;30.40;;;10.20;99.90;;;;;;5047491;28;20486;-67
2023/03/30 00:24:32;;;;;;;52.72;29.98;;;10.20;99.90;;;;;;5064305;28;20049;-68
2023/03/30 00:26:58;;;;;;;46.40;29.75;;;10.20;99.90;;;;;;5047263;28;20040;-67
2023/03/30 00:29:24;;;;;;;48.13;29.00;;;10.20;99.90;;;;;;5064016;28;20492;-67
2023/03/30 00:31:50;;;;;;;46.95;26.05;;;10.20;99.90;;;;;;5075787;28;20032;-67
2023/03/30 00:34:16;;;;;;;34.30;21.20;;;10.20;99.90;;;;;;5083102;28;20050;-67
2023/03/30 00:36:42;;;;;;;36.97;20.30;;;10.30;99.90;;;;;;5047150;28;20066;-67
2023/03/30 00:39:07;;;;;;;28.90;19.20;;;10.40;99.90;;;;;;5047462;28;20609;-67
2023/03/30 00:41:36;;;;;;;33.05;20.10;;;10.50;99.90;;;;;;5061460;28;20079;-67
2023/03/30 00:44:05;;;;;;;34.60;21.85;;;10.50;99.90;;;;;;5067073;28;20097;-67
2023/03/30 00:46:31;;;;;;;38.42;21.92;;;10.60;99.90;;;;;;5056163;28;20040;-67
2023/03/30 00:49:03;;;;;;;28.90;18.75;;;10.60;99.90;;;;;;5047027;28;20036;-67
2023/03/30 00:51:32;;;;;;;26.42;16.33;;;10.60;99.90;;;;;;5063176;28;20048;-69
2023/03/30 00:54:12;;;;;;;23.40;15.02;;;10.60;99.90;;;;;;5047276;28;20130;-68
2023/03/30 00:56:38;;;;;;;23.75;15.18;;;10.70;99.90;;;;;;5063089;28;20064;-67
2023/03/30 00:59:04;;;;;;;23.02;14.50;;;10.80;99.90;;;;;;5047337;28;20537;-68
2023/03/30 01:01:37;;;;;;;28.30;16.40;;;10.80;99.90;;;;;;5063127;28;20046;-67
2023/03/30 01:04:04;;;;;;;25.05;15.02;;;10.80;99.90;;;;;;5063296;28;20040;-67
2023/03/30 01:06:32;;;;;;;24.45;14.52;;;10.90;99.90;;;;;;5063032;28;20450;-68
2023/03/30 01:08:58;;;;;;;26.40;13.75;;;10.90;99.90;;;;;;5047033;28;20036;-67
2023/03/30 01:11:28;;;;;;;26.65;13.10;;;10.80;99.90;;;;;;5063086;28;20455;-68
2023/03/30 01:14:00;;;;;;;23.88;13.10;;;10.90;99.90;;;;;;5063482;28;20048;-68
2023/03/30 01:16:34;;;;;;;24.02;13.07;;;10.90;99.90;;;;;;5046773;28;20503;-67
2023/03/30 01:19:34;;;;;;;21.08;12.35;;;11.00;99.90;;;;;;5080332;28;20036;-68
2023/03/30 01:22:19;;;;;;;20.08;12.15;;;11.00;99.90;;;;;;5046702;28;20391;-68
2023/03/30 01:25:17;;;;;;;19.42;11.43;;;10.90;99.90;;;;;;5046189;28;20048;-68
2023/03/30 01:28:07;;;;;;;18.45;11.80;;;11.00;99.90;;;;;;5047870;28;20514;-68
2023/03/30 01:31:11;;;;;;;19.13;11.68;;;11.00;99.90;;;;;;5066867;28;20078;-67
2023/03/30 01:33:46;;;;;;;16.48;10.15;;;11.00;99.90;;;;;;5067268;28;20123;-68
2023/03/30 01:36:18;;;;;;;21.30;10.77;;;11.00;99.90;;;;;;5066950;28;20587;-69
2023/03/30 01:39:02;;;;;;;19.80;10.05;;;11.00;99.90;;;;;;5067026;28;20480;-68
2023/03/30 01:41:50;;;;;;;19.15;10.52;;;11.10;99.90;;;;;;5080815;28;20044;-67
2023/03/30 01:44:46;;;;;;;17.42;9.45;;;11.10;99.90;;;;;;5087024;28;20048;-66
2023/03/30 01:47:28;;;;;;;18.23;8.98;;;11.10;99.90;;;;;;5056179;28;20515;-67
2023/03/30 01:50:07;;;;;;;20.60;9.43;;;11.10;99.90;;;;;;5071149;28;20050;-68
2023/03/30 01:52:55;;;;;;;14.98;8.70;;;11.20;99.90;;;;;;5070062;28;20044;-67
2023/03/30 01:55:31;;;;;;;14.25;6.93;;;11.20;99.90;;;;;;5085580;28;20075;-68
2023/03/30 01:58:07;;;;;;;14.85;6.90;;;11.30;99.90;;;;;;5070188;28;20036;-67
2023/03/30 02:00:35;;;;;;;13.52;6.50;;;11.40;99.90;;;;;;5067751;28;20051;-70
2023/03/30 02:03:12;;;;;;;15.05;6.70;;;11.40;99.90;;;;;;5066629;28;20458;-68
2023/03/30 02:05:39;;;;;;;14.35;6.55;;;11.50;99.90;;;;;;5049146;28;20040;-68
2023/03/30 02:08:14;;;;;;;16.15;6.55;;;11.50;99.90;;;;;;5066917;28;20044;-67
2023/03/30 02:10:42;;;;;;;12.68;6.25;;;11.50;99.90;;;;;;5056432;28;20040;-68
2023/03/30 02:13:09;;;;;;;11.80;6.30;;;11.50;99.90;;;;;;5070262;28;20044;-68
2023/03/30 02:15:40;;;;;;;13.18;6.30;;;11.50;99.90;;;;;;5067453;28;20044;-68
2023/03/30 02:18:06;;;;;;;15.70;7.20;;;11.60;99.90;;;;;;5049541;28;20090;-67
2023/03/30 02:20:33;;;;;;;13.40;6.63;;;11.60;99.90;;;;;;5059069;28;20044;-67
2023/03/30 02:23:00;;;;;;;14.90;6.75;;;11.60;99.90;;;;;;5086339;28;20430;-66
2023/03/30 02:25:26;;;;;;;17.38;6.53;;;11.50;99.90;;;;;;5062712;28;20043;-67
2023/03/30 02:27:52;;;;;;;16.17;7.30;;;11.50;99.90;;;;;;5049468;28;20040;-67
2023/03/30 02:30:18;;;;;;;15.13;6.72;;;11.50;99.90;;;;;;5049233;28;20221;-67
2023/03/30 02:32:48;;;;;;;18.85;7.18;;;11.50;99.90;;;;;;5065826;28;20040;-67
2023/03/30 02:35:23;;;;;;;13.57;7.43;;;11.40;99.90;;;;;;5049008;28;20074;-66
2023/03/30 02:38:16;;;;;;;17.35;7.40;;;11.40;99.90;;;;;;5049559;28;20464;-67
2023/03/30 02:41:03;;;;;;;13.73;6.32;;;11.40;99.90;;;;;;5065410;28;20080;-66
2023/03/30 02:43:51;;;;;;;15.27;6.70;;;11.40;99.90;;;;;;5065778;28;20121;-67
2023/03/30 02:46:32;;;;;;;12.75;6.97;;;11.40;99.90;;;;;;5039476;28;20060;-66
2023/03/30 02:49:16;;;;;;;18.50;7.32;;;11.40;99.90;;;;;;5066699;28;20040;-66
2023/03/30 02:51:53;;;;;;;12.18;6.75;;;11.40;99.90;;;;;;5065475;28;20051;-66
2023/03/30 02:55:03;;;;;;;11.82;6.40;;;11.40;99.90;;;;;;5048845;28;20040;-67
2023/03/30 02:57:43;;;;;;;14.43;6.55;;;11.40;99.90;;;;;;5010698;28;20083;-67
2023/03/30 03:00:16;;;;;;;13.82;6.70;;;11.40;99.90;;;;;;5026884;28;20077;-66
2023/03/30 03:02:51;;;;;;;15.38;7.15;;;11.40;99.90;;;;;;5045169;28;20070;-67
2023/03/30 03:05:17;;;;;;;13.07;6.65;;;11.40;99.90;;;;;;5051319;28;20094;-68
2023/03/30 03:07:43;;;;;;;16.35;6.72;;;11.40;99.90;;;;;;5048464;28;20047;-67
2023/03/30 03:10:10;;;;;;;19.13;6.82;;;11.40;99.90;;;;;;5064671;28;20028;-67
2023/03/30 03:12:36;;;;;;;12.80;7.03;;;11.40;99.90;;;;;;5048856;28;20392;-67
2023/03/30 03:15:04;;;;;;;13.23;6.13;;;11.40;99.90;;;;;;5064787;28;20055;-68
2023/03/30 03:17:33;;;;;;;13.10;5.75;;;11.40;99.90;;;;;;5048148;28;20141;-67
2023/03/30 03:20:03;;;;;;;13.80;6.43;;;11.40;99.90;;;;;;5064871;28;20045;-68
2023/03/30 03:22:29;;;;;;;12.45;5.78;;;11.50;99.90;;;;;;5048249;28;20051;-67
2023/03/30 03:24:55;;;;;;;15.38;6.90;;;11.50;99.90;;;;;;5064641;28;20500;-66
2023/03/30 03:27:21;;;;;;;11.32;6.47;;;11.40;99.90;;;;;;5065051;28;20040;-66
2023/03/30 03:29:46;;;;;;;14.88;5.63;;;11.50;99.90;;;;;;5064722;28;20032;-67
2023/03/30 03:32:12;;;;;;;12.07;5.70;;;11.50;99.90;;;;;;5065216;28;20133;-68
2023/03/30 03:34:38;;;;;;;14.38;5.85;;;11.50;99.90;;;;;;5064894;28;20118;-68
2023/03/30 03:37:04;;;;;;;14.25;5.40;;;11.60;99.90;;;;;;5048090;28;20256;-69
2023/03/30 03:39:30;;;;;;;12.25;5.78;;;11.60;99.90;;;;;;5064707;28;20054;-66
2023/03/30 03:41:56;;;;;;;12.23;5.10;;;11.60;99.90;;;;;;5047739;28;20048;-67
2023/03/30 03:44:22;;;;;;;17.05;5.35;;;11.60;99.90;;;;;;5064873;28;20044;-67
2023/03/30 03:46:47;;;;;;;14.02;5.53;;;11.60;99.90;;;;;;5047770;28;20076;-67
2023/03/30 03:49:13;;;;;;;13.50;5.53;;;11.60;99.90;;;;;;5047722;28;20408;-67
2023/03/30 03:51:39;;;;;;;12.60;5.45;;;11.60;99.90;;;;;;5063462;28;20045;-67
2023/03/30 03:54:05;;;;;;;14.18;6.38;;;11.60;99.90;;;;;;5064347;28;20079;-67
2023/03/30 03:56:32;;;;;;;11.50;4.97;;;11.50;99.90;;;;;;5047236;28;20427;-68
2023/03/30 03:58:57;;;;;;;16.17;5.72;;;11.50;99.90;;;;;;5064351;28;20256;-67
2023/03/30 04:01:23;;;;;;;17.48;5.40;;;11.60;99.90;;;;;;5047873;28;20044;-67
2023/03/30 04:03:49;;;;;;;12.77;5.60;;;11.60;99.90;;;;;;5064925;28;20074;-67
2023/03/30 04:06:15;;;;;;;15.30;5.05;;;11.70;99.90;;;;;;5062899;28;20048;-66
2023/03/30 04:08:41;;;;;;;11.32;4.63;;;11.70;99.90;;;;;;5084618;28;20445;-67
2023/03/30 04:11:10;;;;;;;11.02;5.18;;;11.70;99.90;;;;;;5055416;28;20036;-67
2023/03/30 04:13:37;;;;;;;13.68;5.22;;;11.70;99.90;;;;;;5047577;28;20127;-67
2023/03/30 04:16:03;;;;;;;10.63;4.60;;;11.70;99.90;;;;;;5047334;28;20036;-68
2023/03/30 04:18:32;;;;;;;13.68;5.05;;;11.60;99.90;;;;;;5047623;28;20048;-67
2023/03/30 04:21:04;;;;;;;13.70;5.82;;;11.60;99.90;;;;;;5046844;28;20086;-68
2023/03/30 04:23:32;;;;;;;12.52;4.88;;;11.50;99.90;;;;;;5064220;28;20396;-67
2023/03/30 04:26:03;;;;;;;10.95;5.20;;;11.50;99.90;;;;;;5046949;28;20063;-67
2023/03/30 04:28:31;;;;;;;10.95;4.25;;;11.40;99.90;;;;;;5063737;28;20040;-67
2023/03/30 04:31:03;;;;;;;11.43;4.60;;;11.50;99.90;;;;;;5063910;28;20029;-68
2023/03/30 04:33:33;;;;;;;13.85;4.90;;;11.50;99.90;;;;;;5064356;28;20028;-67
2023/03/30 04:35:59;;;;;;;13.77;4.10;;;11.60;99.90;;;;;;5047166;28;20519;-68
2023/03/30 04:38:26;;;;;;;14.63;4.45;;;11.60;99.90;;;;;;5063859;28;20048;-68
2023/03/30 04:40:53;;;;;;;14.98;3.90;;;11.70;99.90;;;;;;5071923;28;20081;-68
2023/03/30 04:43:21;;;;;;;13.60;4.40;;;11.70;99.90;;;;;;5067248;28;20097;-68
2023/03/30 04:45:52;;;;;;;16.75;4.47;;;11.70;99.90;;;;;;5063539;28;20040;-68
2023/03/30 04:48:19;;;;;;;13.88;4.05;;;11.70;99.90;;;;;;5047173;28;20283;-69
2023/03/30 04:50:48;;;;;;;12.50;4.18;;;11.80;99.90;;;;;;5046490;28;20040;-69
2023/03/30 04:53:15;;;;;;;15.00;3.97;;;11.70;99.90;;;;;;5047105;28;20044;-67
2023/03/30 04:55:41;;;;;;;12.60;4.07;;;11.70;99.90;;;;;;5046539;28;20088;-68
2023/03/30 04:58:12;;;;;;;10.05;3.92;;;11.70;99.90;;;;;;5063972;28;20131;-67
2023/03/30 05:00:38;;;;;;;10.40;3.75;;;11.70;99.90;;;;;;5063324;28;20048;-66
2023/03/30 05:03:05;;;;;;;11.27;3.95;;;11.80;99.90;;;;;;5048904;28;20087;-69
2023/03/30 05:05:31;;;;;;;11.40;4.15;;;11.80;99.90;;;;;;5052695;28;20048;-67
2023/03/30 05:07:57;;;;;;;11.30;3.65;;;11.80;99.90;;;;;;5051268;28;20036;-69
2023/03/30 05:10:22;;;;;;;16.10;4.63;;;11.90;99.90;;;;;;5054331;28;20040;-68
2023/03/30 05:12:48;;;;;;;11.95;4.20;;;12.00;99.90;;;;;;5071173;28;20044;-69
2023/03/30 05:15:14;;;;;;;11.75;3.95;;;12.00;99.90;;;;;;5088039;28;20083;-67
2023/03/30 05:17:40;;;;;;;9.55;3.83;;;12.00;99.90;;;;;;5052371;28;20232;-68
2023/03/30 05:20:07;;;;;;;14.38;4.10;;;12.10;99.90;;;;;;5050474;28;20044;-69
2023/03/30 05:22:34;;;;;;;13.20;3.97;;;12.10;99.90;;;;;;5051044;28;20676;-67
2023/03/30 05:25:00;;;;;;;13.98;3.88;;;12.10;99.90;;;;;;5050439;28;20040;-68
2023/03/30 05:27:25;;;;;;;11.23;3.53;;;12.20;99.90;;;;;;5068682;28;20127;-70
2023/03/30 05:29:51;;;;;;;18.90;4.00;;;12.20;99.90;;;;;;5069548;28;20131;-67
2023/03/30 05:32:17;;;;;;;15.82;4.13;;;12.20;99.90;;;;;;5069458;28;20024;-67
2023/03/30 05:34:43;;;;;;;15.60;4.05;;;12.20;99.90;;;;;;5068992;28;20674;-67
2023/03/30 05:37:09;;;;;;;13.80;4.18;;;12.20;99.90;;;;;;5079509;28;20066;-68
2023/03/30 05:39:35;;;;;;;15.48;4.65;;;12.20;99.90;;;;;;5067774;28;20060;-68
2023/03/30 05:42:02;;;;;;;15.77;4.45;;;12.20;99.90;;;;;;5068334;28;20036;-66
2023/03/30 05:44:28;;;;;;;14.18;4.70;;;12.20;99.90;;;;;;5069252;28;20044;-68
2023/03/30 05:46:54;;;;;;;12.93;4.32;;;12.20;99.90;;;;;;5085076;28;20090;-69
2023/03/30 05:49:19;;;;;;;11.65;4.32;;;12.20;99.90;;;;;;5067858;28;20069;-70
2023/03/30 05:51:45;;;;;;;16.10;4.70;;;12.20;99.90;;;;;;5066512;28;20043;-68
2023/03/30 05:54:12;;;;;;;9.75;4.47;;;12.10;99.90;;;;;;5070234;28;20039;-68
2023/03/30 05:56:39;;;;;;;11.27;4.97;;;12.20;99.90;;;;;;5084308;28;20060;-67
2023/03/30 05:59:05;;;;;;;16.38;4.95;;;12.10;99.90;;;;;;5068595;28;20048;-70
2023/03/30 06:01:31;;;;;;;11.30;4.85;;;12.10;99.90;;;;;;5080848;28;20101;-69
2023/03/30 06:03:56;;;;;;;14.55;4.53;;;12.00;99.90;;;;;;5067956;28;20036;-67
2023/03/30 06:06:22;;;;;;;13.20;4.80;;;12.00;99.90;;;;;;5064968;28;20049;-68
2023/03/30 06:08:48;;;;;;;14.93;4.47;;;12.00;99.90;;;;;;5065581;28;20419;-70
2023/03/30 06:11:14;;;;;;;9.27;4.38;;;11.90;99.90;;;;;;5064965;28;20040;-65
2023/03/30 06:13:41;;;;;;;16.85;4.72;;;12.00;99.90;;;;;;5065082;28;20036;-66
2023/03/30 06:16:07;;;;;;;14.38;4.72;;;11.90;99.90;;;;;;5065026;28;20048;-67
2023/03/30 06:18:32;;;;;;;10.27;4.72;;;11.90;99.90;;;;;;5065183;28;20105;-67
2023/03/30 06:21:01;;;;;;;15.25;4.75;;;11.90;99.90;;;;;;5064769;28;20040;-67
2023/03/30 06:23:27;;;;;;;12.07;4.30;;;11.90;99.90;;;;;;5050997;28;20048;-66
2023/03/30 06:25:54;;;;;;;14.27;4.25;;;11.90;99.90;;;;;;5058928;28;20075;-66
2023/03/30 06:28:20;;;;;;;11.90;4.50;;;11.90;99.90;;;;;;5065437;28;20411;-66
2023/03/30 06:30:48;;;;;;;10.05;4.18;;;12.00;99.90;;;;;;5048207;28;20079;-66
2023/03/30 06:33:15;;;;;;;13.52;4.50;;;12.10;99.90;;;;;;5048149;28;20036;-67
2023/03/30 06:35:48;;;;;;;17.98;5.00;;;12.10;99.90;;;;;;5048256;28;20503;-67
2023/03/30 06:38:18;;;;;;;13.75;4.70;;;12.10;99.90;;;;;;5065126;28;20523;-66
2023/03/30 06:40:44;;;;;;;12.02;4.78;;;12.30;99.90;;;;;;5064866;28;20052;-67
2023/03/30 06:43:18;;;;;;;11.00;4.88;;;12.30;99.90;;;;;;5065009;28;20770;-67
2023/03/30 06:45:55;;;;;;;13.57;5.63;;;12.40;99.90;;;;;;5083134;28;20114;-66
2023/03/30 06:48:25;;;;;;;14.05;5.47;;;12.50;99.90;;;;;;5064858;28;20134;-66
2023/03/30 06:50:52;;;;;;;10.43;4.38;;;12.60;99.90;;;;;;5065912;28;20488;-66
2023/03/30 06:53:19;;;;;;;14.02;4.60;;;12.70;99.90;;;;;;5064913;28;20373;-66
2023/03/30 06:55:54;;;;;;;13.52;5.30;;;12.90;99.90;;;;;;5009200;28;1121125;-67
2023/03/30 06:58:20;;;;;;;12.57;4.25;;;13.10;99.90;;;;;;5066753;28;20048;-67
2023/03/30 07:00:47;;;;;;;14.77;4.40;;;13.10;99.90;;;;;;5066639;28;20049;-66
2023/03/30 07:03:15;;;;;;;12.40;3.63;;;13.30;99.90;;;;;;5065683;28;20036;-67
2023/03/30 07:05:41;;;;;;;13.65;4.10;;;13.20;99.90;;;;;;5053095;28;20555;-65
2023/03/30 07:08:07;;;;;;;12.52;4.35;;;13.20;99.90;;;;;;5065614;28;20215;-66
2023/03/30 07:10:33;;;;;;;11.00;3.70;;;13.40;99.90;;;;;;5054566;28;20034;-66
2023/03/30 07:12:59;;;;;;;11.15;3.28;;;13.60;99.90;;;;;;5085342;28;20281;-66
2023/03/30 07:15:25;;;;;;;15.13;3.85;;;13.90;99.90;;;;;;5068314;28;20100;-67
2023/03/30 07:17:52;;;;;;;16.70;3.65;;;14.10;99.90;;;;;;5067057;28;20035;-67
2023/03/30 07:20:19;;;;;;;16.45;4.53;;;14.00;99.90;;;;;;5063156;28;20051;-68
2023/03/30 07:22:45;;;;;;;13.02;3.83;;;13.60;99.90;;;;;;5072672;28;20115;-67
2023/03/30 07:25:10;;;;;;;17.00;3.58;;;13.40;99.90;;;;;;5064721;28;20187;-65
2023/03/30 07:27:37;;;;;;;16.95;3.83;;;13.20;99.90;;;;;;5068121;28;20051;-67
2023/03/30 07:30:04;;;;;;;17.50;3.88;;;13.00;99.90;;;;;;5067462;28;20323;-67
2023/03/30 07:32:30;;;;;;;16.77;3.95;;;12.80;99.90;;;;;;5076537;28;20047;-65
2023/03/30 07:34:57;;;;;;;16.02;3.63;;;12.60;99.90;;;;;;5063963;28;20043;-67
2023/03/30 07:37:23;;;;;;;13.93;3.03;;;12.50;99.90;;;;;;5083246;28;20043;-66
2023/03/30 07:39:49;;;;;;;18.67;3.63;;;12.40;99.90;;;;;;5087706;28;20421;-67
2023/03/30 07:42:15;;;;;;;14.40;3.47;;;12.40;99.90;;;;;;5083938;28;20036;-66
2023/03/30 07:44:41;;;;;;;14.95;3.53;;;12.30;99.90;;;;;;5064536;28;20043;-67
2023/03/30 07:47:07;;;;;;;20.92;4.15;;;12.30;99.90;;;;;;5066485;28;20047;-66
2023/03/30 07:49:33;;;;;;;16.90;3.13;;;12.30;99.90;;;;;;5066369;28;20126;-68
2023/03/30 07:52:00;;;;;;;15.75;3.97;;;12.30;99.90;;;;;;5064480;28;20037;-66
2023/03/30 07:54:26;;;;;;;21.30;4.10;;;12.30;99.90;;;;;;5064689;28;20506;-70
2023/03/30 07:56:52;;;;;;;24.00;3.70;;;12.30;99.90;;;;;;5064347;28;20143;-69
2023/03/30 07:59:22;;;;;;;18.15;4.40;;;12.30;99.90;;;;;;5065118;28;20097;-69
2023/03/30 08:01:49;;;;;;;13.65;3.88;;;12.40;99.90;;;;;;5064402;28;20041;-66
2023/03/30 08:04:18;;;;;;;14.27;3.55;;;12.30;99.90;;;;;;5068013;28;20047;-68
2023/03/30 08:06:44;;;;;;;19.20;4.57;;;12.30;99.90;;;;;;5065213;28;20259;-65
2023/03/30 08:09:10;;;;;;;21.75;4.28;;;12.30;99.90;;;;;;5047830;28;20040;-69
2023/03/30 08:11:36;;;;;;;16.33;4.18;;;12.20;99.90;;;;;;5047821;28;20668;-66
2023/03/30 08:14:02;;;;;;;22.58;4.18;;;12.20;99.90;;;;;;5054793;28;20045;-67
2023/03/30 08:16:29;;;;;;;23.42;5.00;;;12.10;99.90;;;;;;5075848;28;20399;-69
2023/03/30 08:18:55;;;;;;;23.75;4.32;;;12.00;99.90;;;;;;5079835;28;20044;-66
2023/03/30 08:21:24;;;;;;;25.38;5.05;;;12.00;99.90;;;;;;5067692;28;20510;-65
2023/03/30 08:23:56;;;;;;;22.27;4.88;;;11.90;99.90;;;;;;5064957;28;20120;-67
2023/03/30 08:26:22;;;;;;;28.23;4.72;;;11.80;99.90;;;;;;5063600;28;20055;-64
2023/03/30 08:28:48;;;;;;;26.05;4.85;;;11.70;99.90;;;;;;5063667;28;20044;-64
2023/03/30 08:31:16;;;;;;;27.92;5.25;;;11.70;99.90;;;;;;5083048;28;20036;-64
2023/03/30 08:33:43;;;;;;;23.45;5.18;;;11.60;99.90;;;;;;5067519;28;20036;-62
2023/03/30 08:36:11;;;;;;;34.00;5.60;;;11.50;99.90;;;;;;5070080;28;20049;-63
2023/03/30 08:38:38;;;;;;;29.45;4.88;;;11.40;99.90;;;;;;5047368;28;20101;-67
2023/03/30 08:41:23;;;;;;;22.60;5.35;;;11.40;99.90;;;;;;5047041;28;20504;-63
2023/03/30 08:43:57;;;;;;;24.05;5.18;;;11.40;99.90;;;;;;5065140;28;20067;-65
2023/03/30 08:46:23;;;;;;;;;;;11.40;99.90;;;;;;5047854;28;20492;-63
2023/03/30 08:48:52;;;;;;;32.67;5.45;;;11.40;99.90;;;;;;5064073;28;19916;-63
2023/03/30 08:51:22;;;;;;;26.75;4.50;;;11.40;99.90;;;;;;5063767;28;20036;-64
2023/03/30 08:53:56;;;;;;;27.95;5.18;;;11.40;99.90;;;;;;5047231;28;20040;-65
2023/03/30 08:56:30;;;;;;;27.17;5.03;;;11.50;99.90;;;;;;5075045;28;20064;-64
2023/03/30 08:59:39;;;;;;;28.40;4.90;;;11.60;99.90;;;;;;5063819;28;20050;-64
2023/03/30 09:02:16;;;;;;;24.70;5.28;;;11.60;99.90;;;;;;5075388;28;20054;-64
2023/03/30 09:05:07;;;;;;;27.42;5.05;;;11.60;99.90;;;;;;5081653;28;20039;-68
2023/03/30 09:07:42;;;;;;;31.10;4.85;;;11.80;99.90;;;;;;5047294;28;20083;-67
2023/03/30 09:10:13;;;;;;;25.05;4.55;;;11.90;99.90;;;;;;5046800;28;20201;-65
2023/03/30 09:12:49;;;;;;;39.03;6.03;;;12.00;99.90;;;;;;5064001;28;20425;-66
2023/03/30 09:15:20;;;;;;;24.85;4.57;;;12.00;99.90;;;;;;5062579;28;20123;-66
2023/03/30 09:18:07;;;;;;;24.70;4.55;;;12.20;99.90;;;;;;5065968;28;20365;-67
2023/03/30 09:20:36;;;;;;;30.40;4.80;;;12.30;99.90;;;;;;5070536;28;20047;-65
2023/03/30 09:23:06;;;;;;;27.38;5.43;;;12.80;99.90;;;;;;5067317;28;20584;-65
2023/03/30 09:25:43;;;;;;;29.63;4.97;;;13.10;99.90;;;;;;5077437;28;20049;-66
2023/03/30 09:28:43;;;;;;;28.13;4.75;;;13.00;99.90;;;;;;5047201;28;20487;-65
2023/03/30 09:31:34;;;;;;;25.92;4.30;;;13.00;99.90;;;;;;5067317;28;20097;-67
2023/03/30 09:34:11;;;;;;;28.90;5.22;;;13.00;99.90;;;;;;5083749;28;20040;-64
2023/03/30 09:37:08;;;;;;;29.85;5.45;;;13.20;99.90;;;;;;5059885;28;20479;-64
2023/03/30 09:39:35;;;;;;;25.15;4.05;;;13.40;99.90;;;;;;5083955;28;20562;-63
2023/03/30 09:42:20;;;;;;;23.35;4.35;;;13.50;99.90;;;;;;5066865;28;20563;-65
2023/03/30 09:44:45;;;;;;;;;;;13.50;99.90;;;;;;5047516;28;20063;-66
2023/03/30 09:47:35;;;;;;;25.80;4.90;;;13.50;99.90;;;;;;5046560;28;19924;-64
2023/03/30 09:50:27;;;;;;;17.90;3.80;;;13.60;99.90;;;;;;5066291;28;20046;-66
2023/03/30 09:53:00;;;;;;;19.75;3.38;;;13.60;99.90;;;;;;5043731;28;20467;-67
2023/03/30 09:55:32;;;;;;;22.63;3.90;;;13.50;99.90;;;;;;5050288;28;20233;-69
2023/03/30 09:58:16;;;;;;;21.27;4.05;;;13.40;99.90;;;;;;5067181;28;20275;-66
2023/03/30 10:00:43;;;;;;;23.60;3.72;;;13.40;99.90;;;;;;5050287;28;20044;-65
2023/03/30 10:03:19;;;;;;;21.25;4.22;;;13.50;99.90;;;;;;5066894;28;20041;-68
2023/03/30 10:05:58;;;;;;;21.73;4.32;;;13.40;99.90;;;;;;5061721;28;20036;-66
2023/03/30 10:08:24;;;;;;;19.30;4.55;;;13.30;99.90;;;;;;5050630;28;20076;-68
2023/03/30 10:10:55;;;;;;;20.15;4.00;;;13.10;99.90;;;;;;5049703;28;20495;-70
2023/03/30 10:13:29;;;;;;;25.40;3.78;;;12.90;99.90;;;;;;5050302;28;20445;-68
2023/03/30 10:16:00;;;;;;;21.65;3.70;;;12.80;99.90;;;;;;5051644;28;20048;-70
2023/03/30 10:18:45;;;;;;;19.48;4.35;;;12.70;99.90;;;;;;5070025;28;20040;-66
2023/03/30 10:21:14;;;;;;;24.90;4.20;;;12.70;99.90;;;;;;5064762;28;20036;-64
2023/03/30 10:23:43;;;;;;;24.38;3.78;;;12.80;99.90;;;;;;5049922;28;20040;-67
2023/03/30 10:26:18;;;;;;;25.15;4.88;;;12.70;99.90;;;;;;5092392;28;20123;-68
2023/03/30 10:28:59;;;;;;;19.75;3.40;;;12.70;99.90;;;;;;5087161;28;20493;-65
2023/03/30 10:31:26;;;;;;;15.00;3.20;;;12.80;99.90;;;;;;5079871;28;20037;-66
2023/03/30 10:33:56;;;;;;;19.88;4.05;;;12.70;99.90;;;;;;5049550;28;20040;-66
2023/03/30 10:36:27;;;;;;;24.08;3.28;;;12.70;99.90;;;;;;5065870;28;20104;-67
2023/03/30 10:38:53;;;;;;;25.02;3.90;;;12.70;99.90;;;;;;5049856;28;20148;-67
2023/03/30 10:41:22;;;;;;;23.77;4.30;;;12.60;99.90;;;;;;5049221;28;20129;-64
2023/03/30 10:43:49;;;;;;;20.38;3.63;;;12.70;99.90;;;;;;5049822;28;20131;-63
2023/03/30 10:46:21;;;;;;;21.25;3.40;;;12.70;99.90;;;;;;5048976;28;20500;-66
2023/03/30 10:49:19;;;;;;;18.38;3.60;;;12.60;99.90;;;;;;5067532;28;20045;-64
2023/03/30 10:52:08;;;;;;;29.20;4.25;;;12.60;99.90;;;;;;5082429;28;20043;-63
2023/03/30 10:54:48;;;;;;;22.38;4.18;;;12.70;99.90;;;;;;5069422;28;20083;-67
2023/03/30 10:57:17;;;;;;;22.42;4.28;;;12.70;99.90;;;;;;5063726;28;20113;-64
2023/03/30 11:00:13;;;;;;;22.15;4.03;;;12.80;99.90;;;;;;5048440;28;20084;-69
2023/03/30 11:02:50;;;;;;;20.33;4.43;;;12.80;99.90;;;;;;5049286;28;20448;-65
2023/03/30 11:05:21;;;;;;;18.50;4.10;;;12.80;99.90;;;;;;5065243;28;20051;-64
2023/03/30 11:07:53;;;;;;;21.70;4.75;;;12.90;99.90;;;;;;5049105;28;20109;-66
2023/03/30 11:10:21;;;;;;;27.05;5.10;;;12.90;99.90;;;;;;5048663;28;20499;-63
2023/03/30 11:13:04;;;;;;;26.08;4.13;;;12.90;99.90;;;;;;5065580;28;20050;-68
2023/03/30 11:15:54;;;;;;;26.83;4.53;;;13.00;99.90;;;;;;5049412;28;20399;-64
2023/03/30 11:18:38;;;;;;;20.58;4.47;;;13.10;99.90;;;;;;5049549;28;20048;-67
2023/03/30 11:21:16;;;;;;;21.75;3.70;;;13.10;99.90;;;;;;5057090;28;20051;-64
2023/03/30 11:23:52;;;;;;;23.35;4.20;;;13.20;99.90;;;;;;5065700;28;20048;-62
2023/03/30 11:26:34;;;;;;;26.63;5.15;;;13.20;99.90;;;;;;5056227;28;20044;-62
2023/03/30 11:29:18;;;;;;;27.73;5.50;;;13.20;99.90;;;;;;5048679;28;20047;-67
2023/03/30 11:32:05;;;;;;;28.55;4.60;;;13.30;99.90;;;;;;5065135;28;20131;-69
2023/03/30 11:34:56;;;;;;;19.15;4.40;;;13.40;99.90;;;;;;5065175;28;20129;-64
2023/03/30 11:37:29;;;;;;;23.27;4.35;;;13.60;99.90;;;;;;5065062;28;20106;-67
2023/03/30 11:40:21;;;;;;;24.08;4.63;;;13.70;99.90;;;;;;5066190;28;20052;-65
2023/03/30 11:42:47;;;;;;;18.50;4.45;;;13.80;99.90;;;;;;5048630;28;20032;-68
2023/03/30 11:45:19;;;;;;;27.20;4.88;;;13.90;99.90;;;;;;5048296;28;20039;-70
2023/03/30 11:48:10;;;;;;;22.38;3.92;;;14.10;99.90;;;;;;5064456;28;20052;-68
2023/03/30 11:50:39;;;;;;;22.38;4.35;;;14.40;99.90;;;;;;5047895;28;20037;-68
2023/03/30 11:53:36;;;;;;;22.20;4.75;;;14.40;99.90;;;;;;5065305;28;20070;-68
2023/03/30 11:56:52;;;;;;;22.13;3.97;;;14.30;99.90;;;;;;5064298;28;20063;-69
2023/03/30 11:59:23;;;;;;;;;;;14.30;99.90;;;;;;5007501;28;20053;-68
2023/03/30 12:02:20;;;;;;;21.23;4.30;;;14.30;99.90;;;;;;5059211;28;19928;-66
2023/03/30 12:04:54;;;;;;;25.08;3.67;;;14.60;99.90;;;;;;5052488;28;20101;-71
2023/03/30 12:07:50;;;;;;;21.70;4.15;;;15.00;99.90;;;;;;5048050;28;20037;-64
2023/03/30 12:10:24;;;;;;;21.33;4.03;;;15.30;99.90;;;;;;5026479;28;20066;-68
2023/03/30 12:12:54;;;;;;;24.73;4.82;;;15.40;99.90;;;;;;5064040;28;20174;-66
2023/03/30 12:15:25;;;;;;;19.13;3.90;;;15.70;99.90;;;;;;5064538;28;20044;-63
2023/03/30 12:17:59;;;;;;;23.90;4.28;;;16.00;99.90;;;;;;5063384;28;20082;-70
2023/03/30 12:20:40;;;;;;;23.52;4.28;;;15.80;99.50;;;;;;5064485;28;20036;-66
2023/03/30 12:23:17;;;;;;;17.33;3.80;;;15.10;99.50;;;;;;5063843;28;20052;-67
2023/03/30 12:26:02;;;;;;;20.23;4.20;;;14.60;99.90;;;;;;5065503;28;20055;-68
2023/03/30 12:28:42;;;;;;;20.42;4.18;;;14.60;99.90;;;;;;5064692;28;20678;-64
2023/03/30 12:31:07;;;;;;;22.75;4.45;;;14.60;99.90;;;;;;5064778;28;20428;-69
2023/03/30 12:33:48;;;;;;;22.63;3.97;;;14.40;99.90;;;;;;5066659;28;20048;-67
2023/03/30 12:36:36;;;;;;;25.48;4.72;;;14.40;99.90;;;;;;5065792;28;20083;-64
2023/03/30 12:39:07;;;;;;;21.52;4.50;;;14.70;99.90;;;;;;5067957;28;20036;-66
2023/03/30 12:41:47;;;;;;;28.60;5.50;;;14.90;99.90;;;;;;5063469;28;20040;-67
2023/03/30 12:44:33;;;;;;;26.20;4.93;;;15.20;99.90;;;;;;5064429;28;20048;-68
2023/03/30 12:47:12;;;;;;;20.63;4.20;;;15.30;99.90;;;;;;5074361;28;20084;-65
2023/03/30 12:49:50;;;;;;;23.02;4.75;;;15.50;99.90;;;;;;5065365;28;20167;-68
2023/03/30 12:52:35;;;;;;;22.55;3.92;;;15.50;99.90;;;;;;5064344;28;20048;-66
2023/03/30 12:55:15;;;;;;;22.63;4.75;;;15.60;99.90;;;;;;5047111;28;20490;-70
2023/03/30 12:58:09;;;;;;;25.67;4.70;;;15.40;99.60;;;;;;5064375;28;20044;-68
2023/03/30 13:00:50;;;;;;;22.42;4.43;;;15.00;99.90;;;;;;5064020;28;20542;-65
2023/03/30 13:03:31;;;;;;;24.00;4.40;;;15.20;99.90;;;;;;5064163;28;20044;-67